createdAt,value
2023-01-30T00:01:17.196Z,5.75
2023-01-30T00:04:07.341Z,4.60
2023-01-30T00:06:54.924Z,4.95
2023-01-30T00:09:42.639Z,5.38
2023-01-30T00:12:30.346Z,4.85
2023-01-30T00:15:18.162Z,5.20
2023-01-30T00:18:06.075Z,5.40
2023-01-30T00:21:00.755Z,5.70
2023-01-30T00:23:48.490Z,5.60
2023-01-30T00:26:36.328Z,5.28
2023-01-30T00:29:23.985Z,5.25
2023-01-30T00:32:11.704Z,5.22
2023-01-30T00:35:01.196Z,4.75
2023-01-30T00:37:49.244Z,4.88
2023-01-30T00:40:37.059Z,4.80
2023-01-30T00:43:43.871Z,5.60
2023-01-30T00:46:52.642Z,4.93
2023-01-30T00:49:40.315Z,4.60
2023-01-30T00:52:28.191Z,5.10
2023-01-30T00:55:16.421Z,4.25
2023-01-30T00:58:05.011Z,3.58
2023-01-30T01:00:53.362Z,5.10
2023-01-30T01:03:41.051Z,4.68
2023-01-30T01:06:28.698Z,4.35
2023-01-30T01:09:17.458Z,4.40
2023-01-30T01:12:05.822Z,4.72
2023-01-30T01:14:53.473Z,3.58
2023-01-30T01:17:42.869Z,5.20
2023-01-30T01:20:31.207Z,4.90
2023-01-30T01:23:19.149Z,4.30
2023-01-30T01:26:06.819Z,4.03
2023-01-30T01:28:59.432Z,3.88
2023-01-30T01:31:47.211Z,3.78
2023-01-30T01:34:36.616Z,3.97
2023-01-30T01:37:24.439Z,3.72
2023-01-30T01:40:40.448Z,4.45
2023-01-30T01:43:30.947Z,3.78
2023-01-30T01:46:25.835Z,3.80
2023-01-30T01:49:23.175Z,4.38
2023-01-30T01:52:15.754Z,4.07
2023-01-30T01:55:07.643Z,4.45
2023-01-30T01:58:03.720Z,4.20
2023-01-30T02:00:52.396Z,4.38
2023-01-30T02:03:44.999Z,4.93
2023-01-30T02:06:32.989Z,4.97
2023-01-30T02:09:22.015Z,5.07
2023-01-30T02:12:11.857Z,4.60
2023-01-30T02:15:01.079Z,5.13
2023-01-30T02:17:48.965Z,4.32
2023-01-30T02:21:10.534Z,5.30
2023-01-30T02:24:22.472Z,5.03
2023-01-30T02:27:19.641Z,4.63
2023-01-30T02:30:45.041Z,4.55
2023-01-30T02:33:47.256Z,5.05
2023-01-30T02:37:15.782Z,4.03
2023-01-30T02:40:21.935Z,5.20
2023-01-30T02:43:25.141Z,4.97
2023-01-30T02:46:25.035Z,4.35
2023-01-30T02:49:21.708Z,5.25
2023-01-30T02:52:13.200Z,4.88
2023-01-30T02:55:02.826Z,5.88
2023-01-30T02:57:50.709Z,5.38
2023-01-30T03:00:53.276Z,5.50
2023-01-30T03:04:26.754Z,4.85
2023-01-30T03:07:37.563Z,7.20
2023-01-30T03:10:30.344Z,6.22
2023-01-30T03:13:53.587Z,6.30
2023-01-30T03:16:44.028Z,5.55
2023-01-30T03:19:32.850Z,5.72
2023-01-30T03:22:22.385Z,5.13
2023-01-30T03:25:14.162Z,5.75
2023-01-30T03:28:04.113Z,6.68
2023-01-30T03:30:51.819Z,7.60
2023-01-30T03:33:40.722Z,6.00
2023-01-30T03:36:30.821Z,5.50
2023-01-30T03:39:20.764Z,5.70
2023-01-30T03:42:18.390Z,6.75
2023-01-30T03:45:06.496Z,5.82
2023-01-30T03:47:54.239Z,6.93
2023-01-30T03:50:41.931Z,7.53
2023-01-30T03:53:32.050Z,5.25
2023-01-30T03:56:19.959Z,5.82
2023-01-30T03:59:07.716Z,6.53
2023-01-30T04:02:05.493Z,5.05
2023-01-30T04:04:54.007Z,6.78
2023-01-30T04:07:42.033Z,5.47
2023-01-30T04:10:31.049Z,4.72
2023-01-30T04:13:18.893Z,5.60
2023-01-30T04:16:22.103Z,7.05
2023-01-30T04:19:32.377Z,5.97
2023-01-30T04:22:19.935Z,6.38
2023-01-30T04:25:08.886Z,5.00
2023-01-30T04:27:57.619Z,6.50
2023-01-30T04:30:49.796Z,6.38
2023-01-30T04:34:09.787Z,6.40
2023-01-30T04:36:59.776Z,5.65
2023-01-30T04:39:51.622Z,5.77
2023-01-30T04:42:39.474Z,6.07
2023-01-30T04:45:46.704Z,6.05
2023-01-30T04:48:38.042Z,5.90
2023-01-30T04:51:25.773Z,6.25
2023-01-30T04:54:13.710Z,6.45
2023-01-30T04:57:02.397Z,6.22
2023-01-30T05:00:01.573Z,5.63
2023-01-30T05:02:49.812Z,5.57
2023-01-30T05:05:37.769Z,7.22
2023-01-30T05:08:29.454Z,5.68
2023-01-30T05:11:17.232Z,7.22
2023-01-30T05:14:12.439Z,6.32
2023-01-30T05:17:00.287Z,6.55
2023-01-30T05:19:47.963Z,7.50
2023-01-30T05:22:37.977Z,6.57
2023-01-30T05:25:25.670Z,7.00
2023-01-30T05:28:13.419Z,6.25
2023-01-30T05:31:14.510Z,6.72
2023-01-30T05:34:02.274Z,5.70
2023-01-30T05:36:49.925Z,6.05
2023-01-30T05:39:38.183Z,5.63
2023-01-30T05:42:25.841Z,6.00
2023-01-30T05:45:13.501Z,5.65
2023-01-30T05:48:01.582Z,4.00
2023-01-30T05:50:54.412Z,5.85
2023-01-30T05:53:42.067Z,5.32
2023-01-30T05:56:33.445Z,6.72
2023-01-30T05:59:21.209Z,6.40
2023-01-30T06:02:11.096Z,5.07
2023-01-30T06:04:58.841Z,5.50
2023-01-30T06:07:46.569Z,4.15
2023-01-30T06:10:35.257Z,5.72
2023-01-30T06:13:22.984Z,7.18
2023-01-30T06:16:13.511Z,6.57
2023-01-30T06:19:02.360Z,7.53
2023-01-30T06:21:52.785Z,6.20
2023-01-30T06:24:43.336Z,9.88
2023-01-30T06:27:31.982Z,7.80
2023-01-30T06:30:19.863Z,7.90
2023-01-30T06:33:25.888Z,6.30
2023-01-30T06:36:16.048Z,8.40
2023-01-30T06:39:03.864Z,8.95
2023-01-30T06:41:51.764Z,8.13
2023-01-30T06:44:39.692Z,7.03
2023-01-30T06:47:27.392Z,7.93
2023-01-30T06:50:15.988Z,6.88
2023-01-30T06:53:06.423Z,6.65
2023-01-30T06:55:54.716Z,6.45
2023-01-30T06:58:42.465Z,6.65
2023-01-30T07:01:30.174Z,5.63
2023-01-30T07:04:18.133Z,5.50
2023-01-30T07:07:07.088Z,6.13
2023-01-30T07:10:06.873Z,7.18
2023-01-30T07:12:55.710Z,6.53
2023-01-30T07:15:44.734Z,8.60
2023-01-30T07:18:32.325Z,7.50
2023-01-30T07:21:20.037Z,5.90
2023-01-30T07:24:08.234Z,8.23
2023-01-30T07:26:55.980Z,7.80
2023-01-30T07:29:44.899Z,7.72
2023-01-30T07:32:32.645Z,5.70
2023-01-30T07:35:21.410Z,5.95
2023-01-30T07:38:09.315Z,5.07
2023-01-30T07:40:58.864Z,9.73
2023-01-30T07:43:48.818Z,7.50
2023-01-30T07:46:36.521Z,7.80
2023-01-30T07:49:24.502Z,10.00
2023-01-30T07:52:12.124Z,9.32
2023-01-30T07:55:01.469Z,6.20
2023-01-30T07:57:49.323Z,4.95
2023-01-30T08:00:37.089Z,9.43
2023-01-30T08:03:24.742Z,9.73
2023-01-30T08:06:14.132Z,10.13
2023-01-30T08:09:01.751Z,8.65
2023-01-30T08:11:49.441Z,7.32
2023-01-30T08:14:37.062Z,7.28
2023-01-30T08:17:24.896Z,6.15
2023-01-30T08:20:17.049Z,8.30
2023-01-30T08:23:05.453Z,7.43
2023-01-30T08:25:57.772Z,8.77
2023-01-30T08:28:45.581Z,8.40
2023-01-30T08:31:33.221Z,8.40
2023-01-30T08:34:20.899Z,8.88
2023-01-30T08:37:08.601Z,7.57
2023-01-30T08:39:59.314Z,4.78
2023-01-30T08:42:46.976Z,7.30
2023-01-30T08:45:34.975Z,5.90
2023-01-30T08:48:23.617Z,5.30
2023-01-30T08:51:11.723Z,5.80
2023-01-30T08:53:59.755Z,5.38
2023-01-30T08:56:47.596Z,4.35
2023-01-30T08:59:35.167Z,5.47
2023-01-30T09:02:23.013Z,6.65
2023-01-30T09:05:14.088Z,7.03
2023-01-30T09:08:01.655Z,6.78
2023-01-30T09:10:49.296Z,6.47
2023-01-30T09:13:38.979Z,6.47
2023-01-30T09:16:26.589Z,8.63
2023-01-30T09:19:14.744Z,6.45
2023-01-30T09:22:02.305Z,5.45
2023-01-30T09:24:55.671Z,6.57
2023-01-30T09:27:44.747Z,5.35
2023-01-30T09:30:32.651Z,5.05
2023-01-30T09:33:20.697Z,7.05
2023-01-30T09:36:11.699Z,4.90
2023-01-30T09:38:59.423Z,6.22
2023-01-30T09:41:56.201Z,6.70
2023-01-30T09:44:47.840Z,5.82
2023-01-30T09:47:46.075Z,5.47
2023-01-30T09:50:48.547Z,6.68
2023-01-30T09:53:36.510Z,6.75
2023-01-30T09:56:24.546Z,5.75
2023-01-30T09:59:24.037Z,7.53
2023-01-30T10:02:45.448Z,6.28
2023-01-30T10:05:40.889Z,6.65
2023-01-30T10:09:10.190Z,7.57
2023-01-30T10:12:04.757Z,6.32
2023-01-30T10:15:07.939Z,6.75
2023-01-30T10:18:18.488Z,7.40
2023-01-30T10:21:33.019Z,8.98
2023-01-30T10:24:32.463Z,6.22
2023-01-30T10:27:22.408Z,6.80
2023-01-30T10:30:16.661Z,6.97
2023-01-30T10:33:18.936Z,6.97
2023-01-30T10:36:18.905Z,7.88
2023-01-30T10:39:21.367Z,7.03
2023-01-30T10:42:22.717Z,8.30
2023-01-30T10:45:22.653Z,7.95
2023-01-30T10:48:16.463Z,5.65
2023-01-30T10:51:10.753Z,6.72
2023-01-30T10:54:14.041Z,5.55
2023-01-30T10:57:26.641Z,5.10
2023-01-30T11:00:35.607Z,5.65
2023-01-30T11:03:31.860Z,6.40
2023-01-30T11:06:24.235Z,7.68
2023-01-30T11:12:00.582Z,8.23
2023-01-30T11:14:58.956Z,6.78
2023-01-30T11:17:49.043Z,7.07
2023-01-30T11:20:48.022Z,7.38
2023-01-30T11:23:41.407Z,6.47
2023-01-30T11:26:46.817Z,5.72
2023-01-30T11:29:38.065Z,7.00
2023-01-30T11:32:28.594Z,6.72
2023-01-30T11:35:19.226Z,5.72
2023-01-30T11:38:41.024Z,7.55
2023-01-30T11:41:29.820Z,4.75
2023-01-30T11:44:17.398Z,5.32
2023-01-30T11:47:10.397Z,5.05
2023-01-30T11:50:03.702Z,6.32
2023-01-30T11:53:16.281Z,6.53
2023-01-30T11:56:24.587Z,4.88
2023-01-30T11:59:37.055Z,5.30
2023-01-30T12:02:32.644Z,5.40
2023-01-30T12:05:36.904Z,6.00
2023-01-30T12:08:47.088Z,5.80
2023-01-30T12:11:40.454Z,6.82
2023-01-30T12:14:39.788Z,5.50
2023-01-30T12:17:49.152Z,6.07
2023-01-30T12:21:00.076Z,5.93
2023-01-30T12:24:01.111Z,7.28
2023-01-30T12:27:00.802Z,6.60
2023-01-30T12:30:11.376Z,4.70
2023-01-30T12:33:05.052Z,5.18
2023-01-30T12:36:01.550Z,7.60
2023-01-30T12:39:12.669Z,16.42
2023-01-30T12:42:34.025Z,8.20
2023-01-30T12:45:26.985Z,6.72
2023-01-30T12:48:38.286Z,7.65
2023-01-30T12:51:49.572Z,5.97
2023-01-30T12:55:21.552Z,5.75
2023-01-30T12:58:25.128Z,6.33
2023-01-30T13:01:46.448Z,6.60
2023-01-30T13:05:01.726Z,5.57
2023-01-30T13:08:09.261Z,5.00
2023-01-30T13:11:02.806Z,7.15
2023-01-30T13:13:50.423Z,8.07
2023-01-30T13:16:58.071Z,5.88
2023-01-30T13:20:13.376Z,5.40
2023-01-30T13:23:27.469Z,6.10
2023-01-30T13:26:21.415Z,6.20
2023-01-30T13:29:42.286Z,7.90
2023-01-30T13:32:51.112Z,6.18
2023-01-30T13:35:46.869Z,5.90
2023-01-30T13:38:36.837Z,6.20
2023-01-30T13:41:25.749Z,5.15
2023-01-30T13:44:25.556Z,4.93
2023-01-30T13:47:40.941Z,6.93
2023-01-30T13:51:10.262Z,6.32
2023-01-30T13:54:29.777Z,8.35
2023-01-30T13:57:38.064Z,6.05
2023-01-30T14:00:34.101Z,6.07
2023-01-30T14:03:26.381Z,6.47
2023-01-30T14:06:22.624Z,6.47
2023-01-30T14:09:24.530Z,7.18
2023-01-30T14:12:27.856Z,6.45
2023-01-30T14:15:15.513Z,5.70
2023-01-30T14:18:36.770Z,6.65
2023-01-30T14:21:25.601Z,6.35
2023-01-30T14:24:23.179Z,6.30
2023-01-30T14:27:29.956Z,7.72
2023-01-30T14:30:34.995Z,7.72
2023-01-30T14:33:22.644Z,7.18
2023-01-30T14:36:16.265Z,7.65
2023-01-30T14:39:41.063Z,8.60
2023-01-30T14:42:31.290Z,7.38
2023-01-30T14:45:56.398Z,7.07
2023-01-30T14:49:01.247Z,7.55
2023-01-30T14:54:51.576Z,8.15
2023-01-30T14:57:40.534Z,9.20
2023-01-30T15:00:32.626Z,9.48
2023-01-30T15:03:21.047Z,9.48
2023-01-30T15:06:08.788Z,10.45
2023-01-30T15:08:57.234Z,11.10
2023-01-30T15:12:01.791Z,10.20
2023-01-30T15:14:58.492Z,10.23
2023-01-30T15:18:08.282Z,11.48
2023-01-30T15:21:20.410Z,12.32
2023-01-30T15:24:46.776Z,12.57
2023-01-30T15:27:40.395Z,12.40
2023-01-30T15:30:49.734Z,15.50
2023-01-30T15:33:49.009Z,13.55
2023-01-30T15:36:37.353Z,11.25
2023-01-30T15:39:27.162Z,11.68
2023-01-30T15:42:15.830Z,13.27
2023-01-30T15:45:14.991Z,14.50
2023-01-30T15:48:23.802Z,14.45
2023-01-30T15:51:18.442Z,17.15
2023-01-30T15:54:11.563Z,19.85
2023-01-30T15:57:01.025Z,22.88
2023-01-30T15:59:51.929Z,21.30
2023-01-30T16:02:44.451Z,21.92
2023-01-30T16:08:27.054Z,33.05
2023-01-30T16:11:39.151Z,38.45
2023-01-30T16:14:38.049Z,45.25
2023-01-30T16:17:31.866Z,48.10
2023-01-30T16:20:19.565Z,48.45
2023-01-30T16:23:31.315Z,39.42
2023-01-30T16:26:24.532Z,34.03
2023-01-30T16:29:25.176Z,31.42
2023-01-30T16:32:15.047Z,36.92
2023-01-30T16:35:27.149Z,39.17
2023-01-30T16:38:37.430Z,34.92
2023-01-30T16:41:43.615Z,29.15
2023-01-30T16:44:32.831Z,33.85
2023-01-30T16:47:31.815Z,42.22
2023-01-30T16:50:23.549Z,54.88
2023-01-30T16:53:19.361Z,51.28
2023-01-30T16:56:11.087Z,47.13
2023-01-30T16:59:01.170Z,50.72
2023-01-30T17:01:49.481Z,49.70
2023-01-30T17:04:43.457Z,39.05
2023-01-30T17:07:40.905Z,35.25
2023-01-30T17:10:29.129Z,29.65
2023-01-30T17:13:40.034Z,27.35
2023-01-30T17:16:35.490Z,20.00
2023-01-30T17:19:23.203Z,17.85
2023-01-30T17:22:26.828Z,21.02
2023-01-30T17:25:41.110Z,19.63
2023-01-30T17:28:37.529Z,17.65
2023-01-30T17:31:25.576Z,15.85
2023-01-30T17:34:24.560Z,16.70
2023-01-30T17:37:24.742Z,15.90
2023-01-30T17:43:22.028Z,19.35
2023-01-30T17:46:13.865Z,16.05
2023-01-30T17:49:01.671Z,20.30
2023-01-30T17:51:53.077Z,18.42
2023-01-30T17:54:41.195Z,22.42
2023-01-30T17:57:29.228Z,17.65
2023-01-30T18:00:22.883Z,19.73
2023-01-30T18:03:14.931Z,19.08
2023-01-30T18:06:02.804Z,17.35
2023-01-30T18:08:54.149Z,18.20
2023-01-30T18:11:44.979Z,18.63
2023-01-30T18:14:32.887Z,14.43
2023-01-30T18:17:21.425Z,13.70
2023-01-30T18:20:10.968Z,20.15
2023-01-30T18:22:58.716Z,21.85
2023-01-30T18:25:46.364Z,23.40
2023-01-30T18:28:34.040Z,25.95
2023-01-30T18:31:24.160Z,21.60
2023-01-30T18:34:12.198Z,36.25
2023-01-30T18:37:08.314Z,29.88
2023-01-30T18:39:56.082Z,19.15
2023-01-30T18:42:46.126Z,24.27
2023-01-30T18:45:34.182Z,25.98
2023-01-30T18:48:30.667Z,26.55
2023-01-30T18:51:24.612Z,22.63
2023-01-30T18:54:12.271Z,24.05
2023-01-30T18:57:06.530Z,28.13
2023-01-30T18:59:54.204Z,23.95
2023-01-30T19:02:46.214Z,25.30
2023-01-30T19:05:39.262Z,29.42
2023-01-30T19:08:33.951Z,27.98
2023-01-30T19:11:44.178Z,29.83
2023-01-30T19:14:32.903Z,27.67
2023-01-30T19:17:29.295Z,28.13
2023-01-30T19:20:19.720Z,30.17
2023-01-30T19:23:08.990Z,23.27
2023-01-30T19:26:03.563Z,24.58
2023-01-30T19:28:52.499Z,23.25
2023-01-30T19:31:40.815Z,23.17
2023-01-30T19:34:28.592Z,22.50
2023-01-30T19:37:16.542Z,20.38
2023-01-30T19:40:09.123Z,20.20
2023-01-30T19:43:09.238Z,22.48
2023-01-30T19:45:59.900Z,22.77
2023-01-30T19:48:48.863Z,24.20
2023-01-30T19:51:36.674Z,24.25
2023-01-30T19:54:24.413Z,59.33
2023-01-30T19:57:12.042Z,65.45
2023-01-30T19:59:59.711Z,51.63
2023-01-30T20:02:48.028Z,45.38
2023-01-30T20:05:35.840Z,49.25
2023-01-30T20:08:32.362Z,41.88
2023-01-30T20:11:23.648Z,44.83
2023-01-30T20:14:11.536Z,42.28
2023-01-30T20:16:59.199Z,45.08
2023-01-30T20:19:49.212Z,39.83
2023-01-30T20:22:36.882Z,43.30
2023-01-30T20:25:24.807Z,45.33
2023-01-30T20:28:12.445Z,36.88
2023-01-30T20:31:01.176Z,36.05
2023-01-30T20:33:52.843Z,37.25
2023-01-30T20:36:41.409Z,35.97
2023-01-30T20:39:29.707Z,40.05
2023-01-30T20:42:18.953Z,46.30
2023-01-30T20:45:07.221Z,52.67
2023-01-30T20:47:54.852Z,43.45
2023-01-30T20:50:42.876Z,43.55
2023-01-30T20:53:30.656Z,39.72
2023-01-30T20:56:19.716Z,36.92
2023-01-30T20:59:08.241Z,36.03
2023-01-30T21:01:57.999Z,36.20
2023-01-30T21:04:45.665Z,37.20
2023-01-30T21:07:35.904Z,37.20
2023-01-30T21:10:23.580Z,40.95
2023-01-30T21:13:11.211Z,40.55
2023-01-30T21:16:08.602Z,39.58
2023-01-30T21:19:00.694Z,37.75
2023-01-30T21:21:58.054Z,41.22
2023-01-30T21:24:45.711Z,39.50
2023-01-30T21:27:33.586Z,35.50
2023-01-30T21:30:21.286Z,37.60
2023-01-30T21:33:08.894Z,36.20
2023-01-30T21:36:03.829Z,38.28
2023-01-30T21:39:09.869Z,52.83
2023-01-30T21:41:57.586Z,51.80
2023-01-30T21:44:45.273Z,49.90
2023-01-30T21:47:33.165Z,53.92
2023-01-30T21:50:21.225Z,57.83
2023-01-30T21:53:10.312Z,48.78
2023-01-30T21:56:04.625Z,56.30
2023-01-30T21:58:52.855Z,47.55
2023-01-30T22:01:41.899Z,42.67
2023-01-30T22:04:29.542Z,38.58
2023-01-30T22:07:17.207Z,35.63
2023-01-30T22:10:05.181Z,36.60
2023-01-30T22:12:52.951Z,33.53
2023-01-30T22:15:40.579Z,32.40
2023-01-30T22:18:28.321Z,27.88
2023-01-30T22:21:19.397Z,23.40
2023-01-30T22:24:08.706Z,26.67
2023-01-30T22:26:56.497Z,25.25
2023-01-30T22:29:44.118Z,20.27
2023-01-30T22:32:34.746Z,18.52
2023-01-30T22:35:22.463Z,13.65
2023-01-30T22:38:10.202Z,13.82
2023-01-30T22:41:08.906Z,15.52
2023-01-30T22:43:59.182Z,17.35
2023-01-30T22:46:46.890Z,16.17
2023-01-30T22:49:34.592Z,13.40
2023-01-30T22:52:22.243Z,11.02
2023-01-30T22:55:10.141Z,8.75
2023-01-30T22:57:57.832Z,8.35
2023-01-30T23:00:45.535Z,8.85
2023-01-30T23:03:33.366Z,10.40
2023-01-30T23:06:21.284Z,11.43
2023-01-30T23:09:13.730Z,6.72
2023-01-30T23:12:20.170Z,7.07
2023-01-30T23:15:08.266Z,7.22
2023-01-30T23:18:17.037Z,6.53
2023-01-30T23:21:11.272Z,6.68
2023-01-30T23:24:00.722Z,5.55
2023-01-30T23:26:50.507Z,5.53
2023-01-30T23:29:38.130Z,5.45
2023-01-30T23:32:25.782Z,5.55
2023-01-30T23:35:13.488Z,5.63
2023-01-30T23:38:16.717Z,5.05
2023-01-30T23:41:05.458Z,4.53
2023-01-30T23:43:53.997Z,4.20
2023-01-30T23:46:42.712Z,5.55
2023-01-30T23:49:30.375Z,5.30
2023-01-30T23:52:18.039Z,4.90
2023-01-30T23:55:06.996Z,4.50
2023-01-30T23:57:57.165Z,3.67
